sensor_id;sensor_type;location;lat;lon;timestamp;temperature;humidity
67890;DHT22;54685;52.082;5.426;2022-10-04T00:07:00;12.90;99.90
67890;DHT22;54685;52.082;5.426;2022-10-04T00:09:35;12.90;99.90
67890;DHT22;54685;52.082;5.426;2022-10-04T00:12:13;12.90;99.90
67890;DHT22;54685;52.082;5.426;2022-10-04T00:14:42;12.80;99.90
67890;DHT22;54685;52.082;5.426;2022-10-04T00:17:12;12.90;99.90
67890;DHT22;54685;52.082;5.426;2022-10-04T00:19:44;12.90;99.90
67890;DHT22;54685;52.082;5.426;2022-10-04T00:22:31;12.80;99.90
67890;DHT22;54685;52.082;5.426;2022-10-04T00:27:36;12.80;99.90
67890;DHT22;54685;52.082;5.426;2022-10-04T00:34:58;12.80;99.90
67890;DHT22;54685;52.082;5.426;2022-10-04T00:37:26;12.90;99.90
67890;DHT22;54685;52.082;5.426;2022-10-04T00:39:59;12.90;99.90
67890;DHT22;54685;52.082;5.426;2022-10-04T00:42:39;13.00;99.90
67890;DHT22;54685;52.082;5.426;2022-10-04T00:50:43;13.00;99.90
67890;DHT22;54685;52.082;5.426;2022-10-04T00:53:26;13.00;99.90
67890;DHT22;54685;52.082;5.426;2022-10-04T00:55:58;13.00;99.90
67890;DHT22;54685;52.082;5.426;2022-10-04T00:58:33;13.00;99.90
67890;DHT22;54685;52.082;5.426;2022-10-04T01:01:02;13.00;99.90
67890;DHT22;54685;52.082;5.426;2022-10-04T01:03:32;13.00;99.90
67890;DHT22;54685;52.082;5.426;2022-10-04T01:06:04;13.00;99.90
67890;DHT22;54685;52.082;5.426;2022-10-04T01:08:35;12.90;99.90
67890;DHT22;54685;52.082;5.426;2022-10-04T01:11:09;13.00;99.90
67890;DHT22;54685;52.082;5.426;2022-10-04T01:13:39;13.00;99.90
67890;DHT22;54685;52.082;5.426;2022-10-04T01:18:37;13.00;99.90
67890;DHT22;54685;52.082;5.426;2022-10-04T01:29:13;13.00;99.90
67890;DHT22;54685;52.082;5.426;2022-10-04T01:31:49;12.90;99.90
67890;DHT22;54685;52.082;5.426;2022-10-04T01:34:18;12.90;99.90
67890;DHT22;54685;52.082;5.426;2022-10-04T01:36:46;12.90;99.90
67890;DHT22;54685;52.082;5.426;2022-10-04T01:39:15;12.90;99.90
67890;DHT22;54685;52.082;5.426;2022-10-04T01:41:54;12.90;99.90
67890;DHT22;54685;52.082;5.426;2022-10-04T01:44:50;12.90;99.90
67890;DHT22;54685;52.082;5.426;2022-10-04T01:47:19;12.90;99.90
67890;DHT22;54685;52.082;5.426;2022-10-04T01:49:48;12.90;99.90
67890;DHT22;54685;52.082;5.426;2022-10-04T01:52:29;12.80;99.90
67890;DHT22;54685;52.082;5.426;2022-10-04T01:55:03;12.80;99.90
67890;DHT22;54685;52.082;5.426;2022-10-04T01:57:32;12.80;99.90
67890;DHT22;54685;52.082;5.426;2022-10-04T02:00:05;12.70;99.90
67890;DHT22;54685;52.082;5.426;2022-10-04T02:02:55;12.70;99.90
67890;DHT22;54685;52.082;5.426;2022-10-04T02:05:37;12.70;99.90
67890;DHT22;54685;52.082;5.426;2022-10-04T02:08:09;12.60;99.90
67890;DHT22;54685;52.082;5.426;2022-10-04T02:10:37;12.50;99.90
67890;DHT22;54685;52.082;5.426;2022-10-04T02:13:13;12.50;99.90
67890;DHT22;54685;52.082;5.426;2022-10-04T02:15:41;12.50;99.90
67890;DHT22;54685;52.082;5.426;2022-10-04T02:18:11;12.50;99.90
67890;DHT22;54685;52.082;5.426;2022-10-04T02:20:40;12.40;99.90
67890;DHT22;54685;52.082;5.426;2022-10-04T02:23:08;12.40;99.90
67890;DHT22;54685;52.082;5.426;2022-10-04T02:25:37;12.40;99.90
67890;DHT22;54685;52.082;5.426;2022-10-04T02:28:08;12.30;99.90
67890;DHT22;54685;52.082;5.426;2022-10-04T02:31:09;12.30;99.90
67890;DHT22;54685;52.082;5.426;2022-10-04T02:33:50;12.20;99.90
67890;DHT22;54685;52.082;5.426;2022-10-04T02:36:18;12.10;99.90
67890;DHT22;54685;52.082;5.426;2022-10-04T02:38:58;12.10;99.90
67890;DHT22;54685;52.082;5.426;2022-10-04T02:44:16;12.00;99.90
67890;DHT22;54685;52.082;5.426;2022-10-04T02:46:53;12.00;99.90
67890;DHT22;54685;52.082;5.426;2022-10-04T02:49:36;11.90;99.90
67890;DHT22;54685;52.082;5.426;2022-10-04T02:52:26;11.90;99.90
67890;DHT22;54685;52.082;5.426;2022-10-04T02:55:03;11.80;99.90
67890;DHT22;54685;52.082;5.426;2022-10-04T02:57:32;11.80;99.90
67890;DHT22;54685;52.082;5.426;2022-10-04T03:03:16;11.90;99.90
67890;DHT22;54685;52.082;5.426;2022-10-04T03:06:01;11.80;99.90
67890;DHT22;54685;52.082;5.426;2022-10-04T03:08:34;11.80;99.90
67890;DHT22;54685;52.082;5.426;2022-10-04T03:11:03;11.90;99.90
67890;DHT22;54685;52.082;5.426;2022-10-04T03:13:30;11.90;99.90
67890;DHT22;54685;52.082;5.426;2022-10-04T03:15:58;11.80;99.90
67890;DHT22;54685;52.082;5.426;2022-10-04T03:18:25;11.80;99.90
67890;DHT22;54685;52.082;5.426;2022-10-04T03:20:51;11.80;99.90
67890;DHT22;54685;52.082;5.426;2022-10-04T03:23:19;11.90;99.90
67890;DHT22;54685;52.082;5.426;2022-10-04T03:25:55;11.80;99.90
67890;DHT22;54685;52.082;5.426;2022-10-04T03:28:25;11.90;99.90
67890;DHT22;54685;52.082;5.426;2022-10-04T03:30:53;11.90;99.90
67890;DHT22;54685;52.082;5.426;2022-10-04T03:33:23;11.80;99.90
67890;DHT22;54685;52.082;5.426;2022-10-04T03:35:53;11.80;99.90
67890;DHT22;54685;52.082;5.426;2022-10-04T03:38:21;11.70;99.90
67890;DHT22;54685;52.082;5.426;2022-10-04T03:40:53;11.70;99.90
67890;DHT22;54685;52.082;5.426;2022-10-04T03:43:23;11.70;99.90
67890;DHT22;54685;52.082;5.426;2022-10-04T03:45:51;11.60;99.90
67890;DHT22;54685;52.082;5.426;2022-10-04T03:48:28;11.60;99.90
67890;DHT22;54685;52.082;5.426;2022-10-04T03:50:56;11.60;99.90
67890;DHT22;54685;52.082;5.426;2022-10-04T03:53:28;11.60;99.90
67890;DHT22;54685;52.082;5.426;2022-10-04T03:55:57;11.60;99.90
67890;DHT22;54685;52.082;5.426;2022-10-04T03:58:30;11.60;99.90
67890;DHT22;54685;52.082;5.426;2022-10-04T04:01:13;11.50;99.90
67890;DHT22;54685;52.082;5.426;2022-10-04T04:04:12;11.40;99.90
67890;DHT22;54685;52.082;5.426;2022-10-04T04:09:43;11.30;99.90
67890;DHT22;54685;52.082;5.426;2022-10-04T04:12:18;11.30;99.90
67890;DHT22;54685;52.082;5.426;2022-10-04T04:14:49;11.20;99.90
67890;DHT22;54685;52.082;5.426;2022-10-04T04:17:34;11.20;99.90
67890;DHT22;54685;52.082;5.426;2022-10-04T04:20:12;11.10;99.90
67890;DHT22;54685;52.082;5.426;2022-10-04T04:22:43;11.10;99.90
67890;DHT22;54685;52.082;5.426;2022-10-04T04:25:15;11.10;99.90
67890;DHT22;54685;52.082;5.426;2022-10-04T04:27:43;11.00;99.90
67890;DHT22;54685;52.082;5.426;2022-10-04T04:30:15;11.00;99.90
67890;DHT22;54685;52.082;5.426;2022-10-04T04:32:50;11.00;99.90
67890;DHT22;54685;52.082;5.426;2022-10-04T04:35:30;10.90;99.90
67890;DHT22;54685;52.082;5.426;2022-10-04T04:38:09;10.90;99.90
67890;DHT22;54685;52.082;5.426;2022-10-04T04:40:38;10.90;99.90
67890;DHT22;54685;52.082;5.426;2022-10-04T04:43:05;10.90;99.90
67890;DHT22;54685;52.082;5.426;2022-10-04T04:45:35;10.80;99.90
67890;DHT22;54685;52.082;5.426;2022-10-04T04:48:04;10.80;99.90
67890;DHT22;54685;52.082;5.426;2022-10-04T04:50:35;10.80;99.90
67890;DHT22;54685;52.082;5.426;2022-10-04T04:53:11;10.80;99.90
67890;DHT22;54685;52.082;5.426;2022-10-04T04:55:42;10.80;99.90
67890;DHT22;54685;52.082;5.426;2022-10-04T04:58:36;10.80;99.90
67890;DHT22;54685;52.082;5.426;2022-10-04T05:01:17;10.80;99.90
67890;DHT22;54685;52.082;5.426;2022-10-04T05:06:44;10.90;99.90
67890;DHT22;54685;52.082;5.426;2022-10-04T05:09:33;10.90;99.90
67890;DHT22;54685;52.082;5.426;2022-10-04T05:12:12;10.90;99.90
67890;DHT22;54685;52.082;5.426;2022-10-04T05:14:53;10.90;99.90
67890;DHT22;54685;52.082;5.426;2022-10-04T05:17:24;10.90;99.90
67890;DHT22;54685;52.082;5.426;2022-10-04T05:19:56;10.90;99.90
67890;DHT22;54685;52.082;5.426;2022-10-04T05:22:24;10.90;99.90
67890;DHT22;54685;52.082;5.426;2022-10-04T05:24:55;10.90;99.90
67890;DHT22;54685;52.082;5.426;2022-10-04T05:30:07;10.80;99.90
67890;DHT22;54685;52.082;5.426;2022-10-04T05:32:48;10.80;99.90
67890;DHT22;54685;52.082;5.426;2022-10-04T05:35:18;10.80;99.90
67890;DHT22;54685;52.082;5.426;2022-10-04T05:38:05;10.80;99.90
67890;DHT22;54685;52.082;5.426;2022-10-04T05:43:44;10.80;99.90
67890;DHT22;54685;52.082;5.426;2022-10-04T05:46:30;10.80;99.90
67890;DHT22;54685;52.082;5.426;2022-10-04T05:49:09;10.90;99.90
67890;DHT22;54685;52.082;5.426;2022-10-04T05:51:54;10.90;99.90
67890;DHT22;54685;52.082;5.426;2022-10-04T05:54:24;10.90;99.90
67890;DHT22;54685;52.082;5.426;2022-10-04T06:03:02;10.90;99.90
67890;DHT22;54685;52.082;5.426;2022-10-04T06:05:59;10.90;99.90
67890;DHT22;54685;52.082;5.426;2022-10-04T06:08:40;10.90;99.90
67890;DHT22;54685;52.082;5.426;2022-10-04T06:11:42;10.90;99.90
67890;DHT22;54685;52.082;5.426;2022-10-04T06:22:30;10.90;99.90
67890;DHT22;54685;52.082;5.426;2022-10-04T06:25:05;10.90;99.90
67890;DHT22;54685;52.082;5.426;2022-10-04T06:27:44;10.90;99.90
67890;DHT22;54685;52.082;5.426;2022-10-04T06:30:16;10.90;99.90
67890;DHT22;54685;52.082;5.426;2022-10-04T06:46:06;10.90;99.90
67890;DHT22;54685;52.082;5.426;2022-10-04T06:51:27;10.90;99.90
67890;DHT22;54685;52.082;5.426;2022-10-04T06:57:42;11.00;99.90
67890;DHT22;54685;52.082;5.426;2022-10-04T07:02:57;11.00;99.90
67890;DHT22;54685;52.082;5.426;2022-10-04T07:05:31;11.10;99.90
67890;DHT22;54685;52.082;5.426;2022-10-04T07:08:04;11.20;99.90
67890;DHT22;54685;52.082;5.426;2022-10-04T07:10:39;11.20;99.90
67890;DHT22;54685;52.082;5.426;2022-10-04T07:13:21;11.30;99.90
67890;DHT22;54685;52.082;5.426;2022-10-04T07:21:20;11.50;99.90
67890;DHT22;54685;52.082;5.426;2022-10-04T07:23:52;11.50;99.90
67890;DHT22;54685;52.082;5.426;2022-10-04T07:26:26;11.50;99.90
67890;DHT22;54685;52.082;5.426;2022-10-04T07:28:57;11.60;99.90
67890;DHT22;54685;52.082;5.426;2022-10-04T07:32:01;11.60;99.90
67890;DHT22;54685;52.082;5.426;2022-10-04T07:37:17;11.60;99.90
67890;DHT22;54685;52.082;5.426;2022-10-04T07:40:01;11.60;99.90
67890;DHT22;54685;52.082;5.426;2022-10-04T07:42:50;11.60;99.90
67890;DHT22;54685;52.082;5.426;2022-10-04T07:45:24;11.70;99.90
67890;DHT22;54685;52.082;5.426;2022-10-04T07:48:13;11.70;99.90
67890;DHT22;54685;52.082;5.426;2022-10-04T07:53:38;11.90;99.90
67890;DHT22;54685;52.082;5.426;2022-10-04T07:56:34;11.90;99.90
67890;DHT22;54685;52.082;5.426;2022-10-04T08:08:12;12.30;99.90
67890;DHT22;54685;52.082;5.426;2022-10-04T08:10:36;12.40;99.90
67890;DHT22;54685;52.082;5.426;2022-10-04T08:15:41;12.50;99.90
67890;DHT22;54685;52.082;5.426;2022-10-04T08:18:35;12.50;99.90
67890;DHT22;54685;52.082;5.426;2022-10-04T08:21:13;12.60;99.90
67890;DHT22;54685;52.082;5.426;2022-10-04T08:24:03;12.60;99.90
67890;DHT22;54685;52.082;5.426;2022-10-04T08:29:37;12.70;99.90
67890;DHT22;54685;52.082;5.426;2022-10-04T08:35:30;12.90;99.90
67890;DHT22;54685;52.082;5.426;2022-10-04T08:38:07;12.90;99.90
67890;DHT22;54685;52.082;5.426;2022-10-04T08:43:50;13.00;99.90
67890;DHT22;54685;52.082;5.426;2022-10-04T08:52:25;13.20;99.90
67890;DHT22;54685;52.082;5.426;2022-10-04T08:55:02;13.30;99.90
67890;DHT22;54685;52.082;5.426;2022-10-04T08:57:49;13.30;99.90
67890;DHT22;54685;52.082;5.426;2022-10-04T09:15:11;13.60;99.90
67890;DHT22;54685;52.082;5.426;2022-10-04T09:17:53;13.80;99.90
67890;DHT22;54685;52.082;5.426;2022-10-04T09:26:22;14.10;99.90
67890;DHT22;54685;52.082;5.426;2022-10-04T09:45:29;17.30;99.90
67890;DHT22;54685;52.082;5.426;2022-10-04T10:05:35;17.60;99.90
67890;DHT22;54685;52.082;5.426;2022-10-04T10:16:54;19.60;99.90
67890;DHT22;54685;52.082;5.426;2022-10-04T10:28:27;20.30;95.00
67890;DHT22;54685;52.082;5.426;2022-10-04T10:36:52;20.50;92.30
67890;DHT22;54685;52.082;5.426;2022-10-04T10:42:36;20.80;89.90
67890;DHT22;54685;52.082;5.426;2022-10-04T10:47:59;21.20;85.60
67890;DHT22;54685;52.082;5.426;2022-10-04T10:50:47;21.70;89.10
67890;DHT22;54685;52.082;5.426;2022-10-04T11:02:23;22.60;68.50
67890;DHT22;54685;52.082;5.426;2022-10-04T11:05:36;22.80;67.70
67890;DHT22;54685;52.082;5.426;2022-10-04T11:08:44;23.00;66.80
67890;DHT22;54685;52.082;5.426;2022-10-04T11:28:19;22.40;65.30
67890;DHT22;54685;52.082;5.426;2022-10-04T11:31:16;22.20;66.40
67890;DHT22;54685;52.082;5.426;2022-10-04T11:34:16;21.90;66.90
67890;DHT22;54685;52.082;5.426;2022-10-04T11:40:02;21.00;68.60
67890;DHT22;54685;52.082;5.426;2022-10-04T11:46:07;20.30;72.30
67890;DHT22;54685;52.082;5.426;2022-10-04T12:02:55;19.20;92.20
67890;DHT22;54685;52.082;5.426;2022-10-04T12:08:40;19.10;93.00
67890;DHT22;54685;52.082;5.426;2022-10-04T12:14:28;19.30;93.10
67890;DHT22;54685;52.082;5.426;2022-10-04T12:17:12;19.40;94.30
67890;DHT22;54685;52.082;5.426;2022-10-04T12:22:43;19.30;91.50
67890;DHT22;54685;52.082;5.426;2022-10-04T12:31:19;19.00;92.50
67890;DHT22;54685;52.082;5.426;2022-10-04T12:45:30;19.60;84.70
67890;DHT22;54685;52.082;5.426;2022-10-04T12:59:10;20.00;84.30
67890;DHT22;54685;52.082;5.426;2022-10-04T13:01:51;20.10;83.50
67890;DHT22;54685;52.082;5.426;2022-10-04T13:04:22;20.00;76.60
67890;DHT22;54685;52.082;5.426;2022-10-04T13:07:18;19.90;80.40
67890;DHT22;54685;52.082;5.426;2022-10-04T13:19:36;19.80;75.80
67890;DHT22;54685;52.082;5.426;2022-10-04T13:22:40;19.80;78.00
67890;DHT22;54685;52.082;5.426;2022-10-04T13:31:00;19.90;74.10
67890;DHT22;54685;52.082;5.426;2022-10-04T13:33:50;19.80;75.40
67890;DHT22;54685;52.082;5.426;2022-10-04T13:45:21;19.80;81.50
67890;DHT22;54685;52.082;5.426;2022-10-04T13:48:25;19.80;81.50
67890;DHT22;54685;52.082;5.426;2022-10-04T13:57:27;19.60;80.80
67890;DHT22;54685;52.082;5.426;2022-10-04T14:00:07;19.50;82.50
67890;DHT22;54685;52.082;5.426;2022-10-04T14:08:08;19.30;87.00
67890;DHT22;54685;52.082;5.426;2022-10-04T14:10:55;19.30;85.30
67890;DHT22;54685;52.082;5.426;2022-10-04T14:32:55;19.00;90.60
67890;DHT22;54685;52.082;5.426;2022-10-04T14:38:36;19.00;93.40
67890;DHT22;54685;52.082;5.426;2022-10-04T14:41:21;19.00;93.50
67890;DHT22;54685;52.082;5.426;2022-10-04T14:54:55;19.10;93.10
67890;DHT22;54685;52.082;5.426;2022-10-04T15:00:23;19.00;94.40
67890;DHT22;54685;52.082;5.426;2022-10-04T15:12:23;19.10;94.30
67890;DHT22;54685;52.082;5.426;2022-10-04T15:15:03;19.00;91.70
67890;DHT22;54685;52.082;5.426;2022-10-04T15:17:55;18.90;94.20
67890;DHT22;54685;52.082;5.426;2022-10-04T15:20:52;18.90;96.50
67890;DHT22;54685;52.082;5.426;2022-10-04T15:23:39;18.80;95.50
67890;DHT22;54685;52.082;5.426;2022-10-04T15:31:24;18.60;97.10
67890;DHT22;54685;52.082;5.426;2022-10-04T15:36:58;18.50;98.50
67890;DHT22;54685;52.082;5.426;2022-10-04T15:39:37;18.50;98.90
67890;DHT22;54685;52.082;5.426;2022-10-04T15:50:28;18.30;99.90
67890;DHT22;54685;52.082;5.426;2022-10-04T15:53:37;18.20;99.90
67890;DHT22;54685;52.082;5.426;2022-10-04T15:56:10;18.20;99.90
67890;DHT22;54685;52.082;5.426;2022-10-04T15:58:58;18.20;99.90
67890;DHT22;54685;52.082;5.426;2022-10-04T16:01:48;18.10;99.90
67890;DHT22;54685;52.082;5.426;2022-10-04T16:04:33;18.10;99.90
67890;DHT22;54685;52.082;5.426;2022-10-04T16:10:16;18.10;99.90
67890;DHT22;54685;52.082;5.426;2022-10-04T16:15:31;18.10;99.90
67890;DHT22;54685;52.082;5.426;2022-10-04T16:18:06;18.10;99.90
67890;DHT22;54685;52.082;5.426;2022-10-04T16:23:32;18.10;99.90
67890;DHT22;54685;52.082;5.426;2022-10-04T16:26:03;18.10;99.90
67890;DHT22;54685;52.082;5.426;2022-10-04T16:28:52;18.00;99.90
67890;DHT22;54685;52.082;5.426;2022-10-04T16:34:07;17.90;99.90
67890;DHT22;54685;52.082;5.426;2022-10-04T16:36:51;17.90;99.90
67890;DHT22;54685;52.082;5.426;2022-10-04T16:39:32;17.80;99.90
67890;DHT22;54685;52.082;5.426;2022-10-04T16:47:37;17.70;99.90
67890;DHT22;54685;52.082;5.426;2022-10-04T16:50:10;17.70;99.90
67890;DHT22;54685;52.082;5.426;2022-10-04T16:52:48;17.70;99.90
67890;DHT22;54685;52.082;5.426;2022-10-04T16:55:35;17.60;99.90
67890;DHT22;54685;52.082;5.426;2022-10-04T17:06:48;17.40;99.90
67890;DHT22;54685;52.082;5.426;2022-10-04T17:12:35;17.40;99.90
67890;DHT22;54685;52.082;5.426;2022-10-04T17:15:18;17.40;99.90
67890;DHT22;54685;52.082;5.426;2022-10-04T17:18:09;17.30;99.90
67890;DHT22;54685;52.082;5.426;2022-10-04T17:26:13;17.30;99.90
67890;DHT22;54685;52.082;5.426;2022-10-04T17:28:57;17.30;99.90
67890;DHT22;54685;52.082;5.426;2022-10-04T17:34:47;17.20;99.90
67890;DHT22;54685;52.082;5.426;2022-10-04T17:48:04;17.20;99.90
67890;DHT22;54685;52.082;5.426;2022-10-04T17:51:13;17.10;99.90
67890;DHT22;54685;52.082;5.426;2022-10-04T17:54:07;17.10;99.90
67890;DHT22;54685;52.082;5.426;2022-10-04T17:59:48;17.10;99.90
67890;DHT22;54685;52.082;5.426;2022-10-04T18:05:31;17.10;99.90
67890;DHT22;54685;52.082;5.426;2022-10-04T18:11:04;17.00;99.90
67890;DHT22;54685;52.082;5.426;2022-10-04T18:13:48;17.10;99.90
67890;DHT22;54685;52.082;5.426;2022-10-04T18:16:25;17.10;99.90
67890;DHT22;54685;52.082;5.426;2022-10-04T18:18:54;17.00;99.90
67890;DHT22;54685;52.082;5.426;2022-10-04T18:23:58;17.00;99.90
67890;DHT22;54685;52.082;5.426;2022-10-04T18:26:28;17.00;99.90
67890;DHT22;54685;52.082;5.426;2022-10-04T18:28:59;17.00;99.90
67890;DHT22;54685;52.082;5.426;2022-10-04T18:31:31;17.00;99.90
67890;DHT22;54685;52.082;5.426;2022-10-04T18:34:24;17.00;99.90
67890;DHT22;54685;52.082;5.426;2022-10-04T18:37:03;17.00;99.90
67890;DHT22;54685;52.082;5.426;2022-10-04T18:39:42;17.00;99.90
67890;DHT22;54685;52.082;5.426;2022-10-04T18:42:29;17.00;99.90
67890;DHT22;54685;52.082;5.426;2022-10-04T18:45:21;17.00;99.90
67890;DHT22;54685;52.082;5.426;2022-10-04T18:47:49;16.90;99.90
67890;DHT22;54685;52.082;5.426;2022-10-04T18:50:33;16.90;99.90
67890;DHT22;54685;52.082;5.426;2022-10-04T18:53:29;16.90;99.90
67890;DHT22;54685;52.082;5.426;2022-10-04T18:56:08;16.90;99.90
67890;DHT22;54685;52.082;5.426;2022-10-04T18:59:09;16.90;99.90
67890;DHT22;54685;52.082;5.426;2022-10-04T19:13:08;16.90;99.90
67890;DHT22;54685;52.082;5.426;2022-10-04T19:18:29;16.80;99.90
67890;DHT22;54685;52.082;5.426;2022-10-04T19:21:16;16.80;99.90
67890;DHT22;54685;52.082;5.426;2022-10-04T19:27:02;16.80;99.90
67890;DHT22;54685;52.082;5.426;2022-10-04T19:33:34;16.80;99.90
67890;DHT22;54685;52.082;5.426;2022-10-04T19:54:58;16.70;99.90
67890;DHT22;54685;52.082;5.426;2022-10-04T19:57:37;16.70;99.90
67890;DHT22;54685;52.082;5.426;2022-10-04T20:00:11;16.60;99.90
67890;DHT22;54685;52.082;5.426;2022-10-04T20:02:41;16.60;99.90
67890;DHT22;54685;52.082;5.426;2022-10-04T20:05:17;16.60;99.90
67890;DHT22;54685;52.082;5.426;2022-10-04T20:07:54;16.60;99.90
67890;DHT22;54685;52.082;5.426;2022-10-04T20:10:30;16.60;99.90
67890;DHT22;54685;52.082;5.426;2022-10-04T20:13:25;16.60;99.90
67890;DHT22;54685;52.082;5.426;2022-10-04T20:15:56;16.60;99.90
67890;DHT22;54685;52.082;5.426;2022-10-04T20:21:24;16.60;99.90
67890;DHT22;54685;52.082;5.426;2022-10-04T20:23:52;16.60;99.90
67890;DHT22;54685;52.082;5.426;2022-10-04T20:26:40;16.60;99.90
67890;DHT22;54685;52.082;5.426;2022-10-04T20:32:07;16.50;99.90
67890;DHT22;54685;52.082;5.426;2022-10-04T20:37:05;16.50;99.90
67890;DHT22;54685;52.082;5.426;2022-10-04T20:44:53;16.50;99.90
67890;DHT22;54685;52.082;5.426;2022-10-04T20:47:34;16.50;99.90
67890;DHT22;54685;52.082;5.426;2022-10-04T20:50:28;16.50;99.90
67890;DHT22;54685;52.082;5.426;2022-10-04T20:52:57;16.50;99.90
67890;DHT22;54685;52.082;5.426;2022-10-04T20:55:27;16.50;99.90
67890;DHT22;54685;52.082;5.426;2022-10-04T20:58:00;16.40;99.90
67890;DHT22;54685;52.082;5.426;2022-10-04T21:00:31;16.40;99.90
67890;DHT22;54685;52.082;5.426;2022-10-04T21:03:07;16.40;99.90
67890;DHT22;54685;52.082;5.426;2022-10-04T21:05:34;16.40;99.90
67890;DHT22;54685;52.082;5.426;2022-10-04T21:10:38;16.40;99.90
67890;DHT22;54685;52.082;5.426;2022-10-04T21:13:05;16.40;99.90
67890;DHT22;54685;52.082;5.426;2022-10-04T21:15:32;16.40;99.90
67890;DHT22;54685;52.082;5.426;2022-10-04T21:18:07;16.40;99.90
67890;DHT22;54685;52.082;5.426;2022-10-04T21:20:43;16.30;99.90
67890;DHT22;54685;52.082;5.426;2022-10-04T21:23:28;16.30;99.90
67890;DHT22;54685;52.082;5.426;2022-10-04T21:26:21;16.30;99.90
67890;DHT22;54685;52.082;5.426;2022-10-04T21:28:56;16.30;99.90
67890;DHT22;54685;52.082;5.426;2022-10-04T21:31:23;16.30;99.90
67890;DHT22;54685;52.082;5.426;2022-10-04T21:33:50;16.30;99.90
67890;DHT22;54685;52.082;5.426;2022-10-04T21:36:17;16.30;99.90
67890;DHT22;54685;52.082;5.426;2022-10-04T21:38:43;16.30;99.90
67890;DHT22;54685;52.082;5.426;2022-10-04T21:41:10;16.30;99.90
67890;DHT22;54685;52.082;5.426;2022-10-04T21:43:37;16.30;99.90
67890;DHT22;54685;52.082;5.426;2022-10-04T21:46:04;16.30;99.90
67890;DHT22;54685;52.082;5.426;2022-10-04T21:48:31;16.30;99.90
67890;DHT22;54685;52.082;5.426;2022-10-04T21:50:58;16.20;99.90
67890;DHT22;54685;52.082;5.426;2022-10-04T21:53:25;16.20;99.90
67890;DHT22;54685;52.082;5.426;2022-10-04T21:55:52;16.20;99.90
67890;DHT22;54685;52.082;5.426;2022-10-04T21:58:19;16.20;99.90
67890;DHT22;54685;52.082;5.426;2022-10-04T22:00:46;16.20;99.90
67890;DHT22;54685;52.082;5.426;2022-10-04T22:03:12;16.20;99.90
67890;DHT22;54685;52.082;5.426;2022-10-04T22:05:39;16.20;99.90
67890;DHT22;54685;52.082;5.426;2022-10-04T22:08:06;16.20;99.90
67890;DHT22;54685;52.082;5.426;2022-10-04T22:10:32;16.20;99.90
67890;DHT22;54685;52.082;5.426;2022-10-04T22:12:59;16.20;99.90
67890;DHT22;54685;52.082;5.426;2022-10-04T22:15:27;16.20;99.90
67890;DHT22;54685;52.082;5.426;2022-10-04T22:17:54;16.20;99.90
67890;DHT22;54685;52.082;5.426;2022-10-04T22:20:22;16.20;99.90
67890;DHT22;54685;52.082;5.426;2022-10-04T22:22:49;16.20;99.90
67890;DHT22;54685;52.082;5.426;2022-10-04T22:25:19;16.20;99.90
67890;DHT22;54685;52.082;5.426;2022-10-04T22:27:46;16.20;99.90
67890;DHT22;54685;52.082;5.426;2022-10-04T22:30:25;16.20;99.90
67890;DHT22;54685;52.082;5.426;2022-10-04T22:32:54;16.20;99.90
67890;DHT22;54685;52.082;5.426;2022-10-04T22:35:21;16.20;99.90
67890;DHT22;54685;52.082;5.426;2022-10-04T22:37:49;16.20;99.90
67890;DHT22;54685;52.082;5.426;2022-10-04T22:40:19;16.20;99.90
67890;DHT22;54685;52.082;5.426;2022-10-04T22:42:50;16.20;99.90
67890;DHT22;54685;52.082;5.426;2022-10-04T22:45:23;16.10;99.90
67890;DHT22;54685;52.082;5.426;2022-10-04T22:47:50;16.10;99.90
67890;DHT22;54685;52.082;5.426;2022-10-04T22:52:50;16.10;99.90
67890;DHT22;54685;52.082;5.426;2022-10-04T22:55:17;16.10;99.90
67890;DHT22;54685;52.082;5.426;2022-10-04T22:57:44;16.10;99.90
67890;DHT22;54685;52.082;5.426;2022-10-04T23:00:14;16.10;99.90
67890;DHT22;54685;52.082;5.426;2022-10-04T23:02:41;16.10;99.90
67890;DHT22;54685;52.082;5.426;2022-10-04T23:05:16;16.10;99.90
67890;DHT22;54685;52.082;5.426;2022-10-04T23:07:44;16.10;99.90
67890;DHT22;54685;52.082;5.426;2022-10-04T23:10:13;16.10;99.90
67890;DHT22;54685;52.082;5.426;2022-10-04T23:12:44;16.10;99.90
67890;DHT22;54685;52.082;5.426;2022-10-04T23:15:18;16.10;99.90
67890;DHT22;54685;52.082;5.426;2022-10-04T23:17:52;16.10;99.90
67890;DHT22;54685;52.082;5.426;2022-10-04T23:20:23;16.00;99.90
67890;DHT22;54685;52.082;5.426;2022-10-04T23:22:51;16.00;99.90
67890;DHT22;54685;52.082;5.426;2022-10-04T23:25:28;16.00;99.90
67890;DHT22;54685;52.082;5.426;2022-10-04T23:28:06;16.00;99.90
67890;DHT22;54685;52.082;5.426;2022-10-04T23:30:36;16.00;99.90
67890;DHT22;54685;52.082;5.426;2022-10-04T23:33:15;15.90;99.90
67890;DHT22;54685;52.082;5.426;2022-10-04T23:35:42;15.90;99.90
67890;DHT22;54685;52.082;5.426;2022-10-04T23:38:15;15.90;99.90
67890;DHT22;54685;52.082;5.426;2022-10-04T23:40:42;15.90;99.90
67890;DHT22;54685;52.082;5.426;2022-10-04T23:43:19;15.90;99.90
67890;DHT22;54685;52.082;5.426;2022-10-04T23:45:46;15.90;99.90
67890;DHT22;54685;52.082;5.426;2022-10-04T23:48:20;15.90;99.90
67890;DHT22;54685;52.082;5.426;2022-10-04T23:50:49;15.90;99.90
67890;DHT22;54685;52.082;5.426;2022-10-04T23:53:23;15.90;99.90
67890;DHT22;54685;52.082;5.426;2022-10-04T23:55:54;15.90;99.90
67890;DHT22;54685;52.082;5.426;2022-10-04T23:58:36;15.90;99.90
